createdAt,value
2023-04-20T00:02:02.978Z,5.05
2023-04-20T00:04:29.811Z,5.72
2023-04-20T00:06:57.013Z,6.88
2023-04-20T00:09:23.327Z,5.43
2023-04-20T00:11:49.730Z,6.80
2023-04-20T00:14:16.300Z,4.35
2023-04-20T00:16:42.770Z,7.40
2023-04-20T00:19:09.322Z,5.03
2023-04-20T00:21:35.795Z,6.13
2023-04-20T00:24:02.155Z,5.80
2023-04-20T00:26:28.454Z,5.15
2023-04-20T00:28:54.774Z,5.78
2023-04-20T00:31:21.302Z,5.57
2023-04-20T00:33:48.384Z,4.82
2023-04-20T00:36:14.796Z,6.75
2023-04-20T00:38:41.377Z,5.47
2023-04-20T00:41:07.940Z,5.60
2023-04-20T00:43:34.296Z,5.70
2023-04-20T00:46:00.723Z,10.63
2023-04-20T00:48:27.717Z,5.82
2023-04-20T00:50:55.420Z,7.47
2023-04-20T00:53:21.722Z,4.80
2023-04-20T00:55:48.707Z,5.43
2023-04-20T00:58:14.991Z,5.72
2023-04-20T01:00:41.310Z,5.13
2023-04-20T01:03:08.000Z,8.05
2023-04-20T01:05:34.793Z,6.35
2023-04-20T01:08:01.156Z,4.45
2023-04-20T01:10:27.460Z,4.95
2023-04-20T01:12:53.804Z,6.60
2023-04-20T01:15:20.679Z,4.88
2023-04-20T01:17:47.164Z,7.57
2023-04-20T01:20:13.606Z,7.20
2023-04-20T01:22:46.657Z,6.57
2023-04-20T01:25:13.163Z,5.05
2023-04-20T01:27:39.480Z,7.40
2023-04-20T01:30:06.228Z,6.65
2023-04-20T01:32:32.575Z,5.82
2023-04-20T01:34:58.910Z,6.05
2023-04-20T01:37:25.218Z,5.80
2023-04-20T01:39:51.662Z,7.72
2023-04-20T01:42:18.013Z,5.80
2023-04-20T01:44:44.298Z,5.38
2023-04-20T01:47:10.588Z,8.63
2023-04-20T01:49:36.992Z,6.53
2023-04-20T01:52:03.384Z,10.43
2023-04-20T01:54:29.682Z,6.18
2023-04-20T01:56:56.241Z,6.93
2023-04-20T01:59:22.533Z,5.97
2023-04-20T02:01:48.933Z,5.65
2023-04-20T02:04:15.359Z,5.78
2023-04-20T02:06:41.683Z,5.65
2023-04-20T02:09:09.320Z,8.25
2023-04-20T02:11:35.743Z,4.93
2023-04-20T02:14:02.023Z,6.43
2023-04-20T02:16:31.680Z,6.03
2023-04-20T02:18:58.487Z,5.97
2023-04-20T02:21:24.880Z,5.82
2023-04-20T02:23:51.172Z,7.43
2023-04-20T02:26:17.488Z,5.45
2023-04-20T02:28:43.776Z,5.60
2023-04-20T02:31:10.096Z,6.72
2023-04-20T02:33:36.520Z,5.50
2023-04-20T02:36:02.904Z,5.43
2023-04-20T02:38:29.195Z,6.30
2023-04-20T02:40:55.566Z,7.03
2023-04-20T02:43:21.948Z,6.82
2023-04-20T02:45:48.326Z,7.18
2023-04-20T02:48:14.681Z,5.82
2023-04-20T02:50:41.943Z,6.70
2023-04-20T02:53:08.280Z,7.13
2023-04-20T02:55:34.604Z,8.10
2023-04-20T02:58:01.020Z,6.10
2023-04-20T03:00:27.348Z,5.47
2023-04-20T03:02:53.784Z,6.63
2023-04-20T03:05:20.268Z,7.00
2023-04-20T03:07:46.534Z,5.95
2023-04-20T03:10:12.984Z,8.98
2023-04-20T03:12:39.290Z,6.18
2023-04-20T03:15:08.492Z,5.72
2023-04-20T03:17:34.836Z,10.20
2023-04-20T03:20:01.139Z,5.85
2023-04-20T03:22:27.488Z,5.95
2023-04-20T03:24:53.897Z,7.60
2023-04-20T03:27:20.213Z,6.00
2023-04-20T03:29:48.724Z,6.43
2023-04-20T03:32:15.217Z,10.23
2023-04-20T03:34:41.515Z,8.38
2023-04-20T03:37:07.766Z,8.60
2023-04-20T03:39:34.108Z,7.35
2023-04-20T03:42:00.542Z,6.72
2023-04-20T03:44:27.020Z,6.78
2023-04-20T03:46:53.466Z,9.88
2023-04-20T03:49:23.227Z,5.35
2023-04-20T03:51:49.533Z,7.55
2023-04-20T03:54:15.945Z,7.15
2023-04-20T03:56:42.301Z,5.25
2023-04-20T03:59:08.591Z,6.00
2023-04-20T04:01:36.698Z,9.77
2023-04-20T04:04:03.209Z,8.63
2023-04-20T04:06:29.682Z,7.53
2023-04-20T04:08:55.971Z,7.30
2023-04-20T04:11:22.428Z,5.85
2023-04-20T04:13:49.355Z,7.18
2023-04-20T04:16:15.669Z,9.63
2023-04-20T04:18:43.435Z,7.13
2023-04-20T04:21:10.435Z,9.25
2023-04-20T04:23:37.619Z,5.97
2023-04-20T04:26:05.010Z,11.55
2023-04-20T04:28:31.457Z,6.07
2023-04-20T04:30:58.036Z,7.75
2023-04-20T04:33:25.429Z,9.07
2023-04-20T04:35:53.557Z,6.13
2023-04-20T04:38:19.924Z,6.65
2023-04-20T04:40:46.234Z,7.00
2023-04-20T04:43:12.583Z,5.38
2023-04-20T04:45:40.895Z,9.05
2023-04-20T04:48:09.762Z,7.25
2023-04-20T04:50:36.861Z,6.72
2023-04-20T04:53:05.465Z,5.63
2023-04-20T04:55:31.837Z,5.55
2023-04-20T04:57:58.208Z,7.00
2023-04-20T05:00:25.257Z,10.27
2023-04-20T05:05:22.572Z,4.72
2023-04-20T05:07:48.973Z,6.65
2023-04-20T05:10:18.005Z,7.95
2023-04-20T05:12:44.607Z,6.50
2023-04-20T05:15:10.979Z,6.72
2023-04-20T05:17:37.376Z,7.53
2023-04-20T05:20:06.229Z,5.57
2023-04-20T05:22:32.985Z,7.78
2023-04-20T05:24:59.254Z,7.85
2023-04-20T05:27:25.581Z,6.35
2023-04-20T05:29:51.908Z,7.72
2023-04-20T05:32:18.298Z,6.40
2023-04-20T05:34:44.757Z,4.50
2023-04-20T05:37:11.918Z,5.78
2023-04-20T05:39:38.252Z,5.03
2023-04-20T05:42:04.594Z,7.43
2023-04-20T05:44:30.954Z,7.45
2023-04-20T05:46:57.452Z,6.63
2023-04-20T05:49:23.767Z,4.35
2023-04-20T05:51:51.209Z,10.73
2023-04-20T05:54:17.526Z,6.32
2023-04-20T05:56:43.810Z,6.32
2023-04-20T05:59:10.256Z,5.22
2023-04-20T06:01:36.782Z,6.82
2023-04-20T06:04:03.372Z,9.18
2023-04-20T06:06:29.813Z,5.82
2023-04-20T06:08:58.070Z,7.07
2023-04-20T06:11:24.389Z,9.07
2023-04-20T06:13:50.786Z,4.57
2023-04-20T06:16:17.167Z,7.00
2023-04-20T06:18:43.674Z,8.85
2023-04-20T06:21:10.586Z,6.57
2023-04-20T06:23:37.758Z,5.10
2023-04-20T06:26:04.790Z,5.30
2023-04-20T06:28:31.218Z,8.02
2023-04-20T06:30:57.686Z,8.30
2023-04-20T06:33:24.001Z,8.25
2023-04-20T06:35:51.539Z,11.95
2023-04-20T06:38:17.887Z,7.10
2023-04-20T06:40:44.274Z,7.55
2023-04-20T06:43:10.813Z,5.78
2023-04-20T06:45:37.115Z,7.13
2023-04-20T06:48:03.550Z,4.85
2023-04-20T06:50:29.937Z,8.15
2023-04-20T06:52:56.228Z,9.43
2023-04-20T06:55:22.511Z,7.50
2023-04-20T06:57:49.039Z,9.82
2023-04-20T07:00:15.634Z,9.70
2023-04-20T07:02:46.043Z,6.85
2023-04-20T07:05:12.748Z,5.53
2023-04-20T07:07:39.841Z,8.98
2023-04-20T07:10:07.187Z,10.25
2023-04-20T07:12:34.510Z,5.40
2023-04-20T07:15:01.897Z,6.18
2023-04-20T07:17:29.321Z,5.93
2023-04-20T07:19:56.293Z,6.45
2023-04-20T07:22:22.758Z,7.95
2023-04-20T07:24:49.111Z,6.38
2023-04-20T07:27:15.736Z,5.80
2023-04-20T07:29:42.061Z,11.05
2023-04-20T07:32:08.425Z,11.02
2023-04-20T07:34:34.769Z,8.02
2023-04-20T07:37:01.500Z,10.18
2023-04-20T07:39:30.259Z,7.97
2023-04-20T07:41:57.122Z,8.82
2023-04-20T07:44:23.472Z,7.55
2023-04-20T07:46:49.786Z,5.13
2023-04-20T07:49:16.480Z,8.93
2023-04-20T07:51:43.172Z,7.35
2023-04-20T07:54:09.484Z,7.50
2023-04-20T07:56:36.044Z,5.93
2023-04-20T07:59:02.458Z,8.80
2023-04-20T08:01:28.721Z,7.28
2023-04-20T08:03:55.725Z,8.07
2023-04-20T08:06:22.429Z,8.02
2023-04-20T08:08:48.751Z,7.07
2023-04-20T08:11:15.280Z,7.60
2023-04-20T08:13:41.854Z,5.95
2023-04-20T08:16:08.190Z,10.52
2023-04-20T08:18:34.598Z,7.85
2023-04-20T08:21:00.935Z,7.35
2023-04-20T08:23:30.340Z,7.65
2023-04-20T08:25:56.831Z,4.95
2023-04-20T08:28:33.530Z,5.40
2023-04-20T08:31:00.736Z,5.60
2023-04-20T08:33:27.525Z,7.05
2023-04-20T08:35:53.967Z,6.18
2023-04-20T08:38:30.687Z,5.78
2023-04-20T08:41:00.210Z,7.32
2023-04-20T08:43:26.552Z,6.45
2023-04-20T08:45:55.210Z,6.63
2023-04-20T08:48:21.771Z,6.35
2023-04-20T08:50:48.393Z,6.55
2023-04-20T08:53:14.780Z,7.80
2023-04-20T08:55:41.091Z,5.63
2023-04-20T08:58:07.421Z,8.35
2023-04-20T09:00:33.869Z,8.40
2023-04-20T09:03:02.021Z,11.15
2023-04-20T09:05:29.457Z,7.97
2023-04-20T09:07:58.254Z,7.38
2023-04-20T09:10:25.158Z,8.20
2023-04-20T09:12:52.192Z,7.63
2023-04-20T09:15:25.949Z,7.15
2023-04-20T09:17:52.265Z,7.30
2023-04-20T09:20:28.702Z,7.13
2023-04-20T09:22:55.271Z,9.15
2023-04-20T09:25:21.826Z,8.70
2023-04-20T09:28:01.395Z,7.43
2023-04-20T09:30:38.238Z,8.25
2023-04-20T09:33:04.776Z,8.25
2023-04-20T09:35:31.509Z,10.18
2023-04-20T09:37:57.835Z,6.68
2023-04-20T09:40:27.593Z,7.32
2023-04-20T09:42:54.844Z,10.77
2023-04-20T09:45:21.617Z,7.47
2023-04-20T09:47:49.725Z,6.20
2023-04-20T09:50:25.099Z,7.18
2023-04-20T09:52:56.110Z,6.25
2023-04-20T09:55:24.565Z,6.93
2023-04-20T09:57:51.128Z,8.57
2023-04-20T10:00:17.992Z,5.75
2023-04-20T10:02:46.540Z,8.07
2023-04-20T10:05:12.946Z,6.70
2023-04-20T10:07:39.334Z,7.03
2023-04-20T10:10:13.403Z,7.35
2023-04-20T10:12:49.984Z,5.90
2023-04-20T10:15:16.765Z,7.78
2023-04-20T10:17:43.661Z,6.05
2023-04-20T10:20:26.543Z,7.72
2023-04-20T10:22:53.459Z,8.18
2023-04-20T10:25:22.876Z,9.73
2023-04-20T10:27:52.894Z,8.50
2023-04-20T10:30:19.693Z,7.72
2023-04-20T10:32:46.044Z,6.25
2023-04-20T10:35:13.957Z,8.57
2023-04-20T10:37:50.241Z,8.90
2023-04-20T10:40:17.130Z,7.20
2023-04-20T10:42:44.162Z,9.13
2023-04-20T10:45:13.958Z,7.43
2023-04-20T10:47:45.138Z,9.93
2023-04-20T10:50:13.602Z,8.27
2023-04-20T10:52:41.054Z,8.80
2023-04-20T10:55:17.506Z,6.93
2023-04-20T10:57:47.325Z,9.07
2023-04-20T11:00:17.513Z,7.87
2023-04-20T11:02:53.996Z,9.15
2023-04-20T11:05:21.244Z,6.90
2023-04-20T11:07:50.698Z,6.28
2023-04-20T11:10:17.097Z,6.57
2023-04-20T11:12:43.434Z,7.18
2023-04-20T11:15:10.044Z,7.80
2023-04-20T11:17:37.053Z,6.70
2023-04-20T11:20:09.010Z,6.28
2023-04-20T11:22:35.429Z,7.40
2023-04-20T11:25:09.161Z,6.65
2023-04-20T11:27:35.859Z,6.32
2023-04-20T11:30:05.571Z,6.53
2023-04-20T11:32:35.750Z,5.88
2023-04-20T11:35:07.004Z,5.93
2023-04-20T11:37:34.455Z,8.38
2023-04-20T11:40:01.743Z,7.50
2023-04-20T11:42:28.407Z,9.30
2023-04-20T11:44:54.761Z,9.27
2023-04-20T11:47:21.395Z,6.32
2023-04-20T11:49:47.807Z,7.45
2023-04-20T11:52:14.207Z,7.50
2023-04-20T11:54:40.515Z,6.30
2023-04-20T11:57:07.100Z,5.97
2023-04-20T11:59:33.427Z,8.80
2023-04-20T12:02:03.938Z,6.97
2023-04-20T12:04:31.505Z,8.15
2023-04-20T12:07:02.965Z,7.25
2023-04-20T12:09:30.507Z,6.40
2023-04-20T12:11:57.650Z,8.25
2023-04-20T12:14:23.931Z,8.43
2023-04-20T12:16:50.258Z,6.65
2023-04-20T12:19:17.066Z,9.43
2023-04-20T12:21:43.730Z,6.70
2023-04-20T12:24:10.083Z,9.40
2023-04-20T12:26:38.614Z,7.65
2023-04-20T12:29:05.560Z,8.50
2023-04-20T12:31:31.987Z,8.32
2023-04-20T12:33:58.521Z,7.20
2023-04-20T12:36:24.810Z,8.77
2023-04-20T12:38:52.329Z,9.57
2023-04-20T12:41:18.777Z,8.98
2023-04-20T12:43:45.145Z,11.55
2023-04-20T12:46:11.522Z,8.32
2023-04-20T12:48:37.879Z,8.15
2023-04-20T12:51:04.223Z,7.38
2023-04-20T12:53:30.585Z,6.57
2023-04-20T12:56:01.131Z,8.52
2023-04-20T12:58:27.987Z,10.32
2023-04-20T13:00:54.451Z,7.22
2023-04-20T13:03:21.278Z,11.02
2023-04-20T13:05:47.806Z,7.43
2023-04-20T13:08:14.173Z,8.80
2023-04-20T13:10:42.665Z,6.22
2023-04-20T13:13:10.212Z,8.90
2023-04-20T13:15:39.523Z,6.93
2023-04-20T13:18:06.441Z,9.73
2023-04-20T13:20:32.895Z,7.60
2023-04-20T13:23:00.974Z,10.48
2023-04-20T13:25:27.969Z,8.18
2023-04-20T13:27:54.801Z,8.75
2023-04-20T13:30:23.576Z,7.93
2023-04-20T13:32:50.911Z,9.30
2023-04-20T13:35:17.680Z,9.45
2023-04-20T13:37:44.986Z,7.80
2023-04-20T13:40:11.685Z,11.73
2023-04-20T13:42:38.069Z,7.00
2023-04-20T13:45:05.058Z,10.02
2023-04-20T13:47:31.561Z,8.20
2023-04-20T13:49:58.022Z,9.50
2023-04-20T13:52:24.394Z,7.70
2023-04-20T13:54:50.822Z,8.30
2023-04-20T13:57:17.188Z,6.80
2023-04-20T13:59:43.633Z,9.68
2023-04-20T14:02:10.092Z,7.20
2023-04-20T14:04:37.118Z,9.18
2023-04-20T14:07:03.554Z,8.38
2023-04-20T14:09:31.204Z,9.45
2023-04-20T14:11:57.873Z,7.40
2023-04-20T14:14:24.648Z,7.35
2023-04-20T14:16:51.394Z,10.55
2023-04-20T14:19:17.750Z,8.18
2023-04-20T14:21:46.643Z,8.55
2023-04-20T14:24:13.726Z,8.98
2023-04-20T14:26:40.984Z,8.60
2023-04-20T14:29:07.410Z,9.10
2023-04-20T14:31:34.901Z,12.80
2023-04-20T14:34:01.415Z,8.75
2023-04-20T14:36:27.915Z,8.57
2023-04-20T14:38:58.480Z,7.85
2023-04-20T14:41:24.803Z,10.45
2023-04-20T14:43:51.139Z,8.27
2023-04-20T14:46:18.191Z,8.98
2023-04-20T14:48:46.266Z,7.32
2023-04-20T14:51:13.231Z,12.10
2023-04-20T14:53:39.664Z,9.35
2023-04-20T14:56:06.206Z,8.23
2023-04-20T14:58:32.703Z,10.55
2023-04-20T15:00:59.034Z,7.90
2023-04-20T15:03:25.527Z,7.75
2023-04-20T15:05:52.744Z,8.35
2023-04-20T15:08:19.200Z,6.88
2023-04-20T15:10:45.624Z,10.23
2023-04-20T15:13:13.290Z,9.43
2023-04-20T15:15:48.355Z,7.65
2023-04-20T15:18:16.194Z,11.65
2023-04-20T15:20:42.529Z,8.07
2023-04-20T15:23:08.925Z,7.40
2023-04-20T15:25:35.352Z,7.20
2023-04-20T15:28:01.672Z,9.35
2023-04-20T15:30:29.192Z,11.32
2023-04-20T15:32:55.778Z,8.75
2023-04-20T15:35:31.272Z,9.43
2023-04-20T15:37:58.038Z,9.93
2023-04-20T15:40:24.462Z,10.02
2023-04-20T15:42:51.494Z,11.55
2023-04-20T15:45:17.819Z,7.80
2023-04-20T15:47:44.562Z,9.88
2023-04-20T15:50:11.276Z,8.48
2023-04-20T15:52:37.723Z,10.73
2023-04-20T15:55:04.303Z,9.05
2023-04-20T15:57:31.416Z,9.38
2023-04-20T15:59:57.885Z,8.20
2023-04-20T16:02:24.586Z,9.38
2023-04-20T16:04:51.315Z,9.55
2023-04-20T16:07:17.936Z,10.63
2023-04-20T16:09:44.412Z,9.50
2023-04-20T16:12:10.786Z,8.15
2023-04-20T16:14:37.103Z,8.65
2023-04-20T16:17:03.495Z,9.30
2023-04-20T16:19:30.164Z,8.57
2023-04-20T16:21:56.490Z,9.90
2023-04-20T16:24:23.109Z,9.40
2023-04-20T16:26:49.464Z,6.68
2023-04-20T16:29:16.158Z,8.73
2023-04-20T16:31:42.687Z,8.88
2023-04-20T16:34:09.127Z,11.55
2023-04-20T16:36:35.426Z,9.07
2023-04-20T16:39:05.579Z,8.40
2023-04-20T16:41:31.883Z,8.32
2023-04-20T16:43:58.275Z,10.85
2023-04-20T16:46:24.700Z,8.27
2023-04-20T16:48:51.123Z,8.57
2023-04-20T16:51:17.454Z,12.57
2023-04-20T16:53:45.205Z,9.18
2023-04-20T16:56:12.204Z,8.75
2023-04-20T16:58:38.509Z,8.52
2023-04-20T17:01:04.966Z,8.52
2023-04-20T17:03:31.458Z,11.35
2023-04-20T17:05:57.890Z,13.88
2023-04-20T17:08:26.070Z,10.05
2023-04-20T17:10:52.383Z,9.15
2023-04-20T17:13:18.840Z,9.65
2023-04-20T17:15:46.296Z,8.82
2023-04-20T17:18:12.745Z,9.23
2023-04-20T17:20:39.082Z,9.13
2023-04-20T17:23:05.410Z,10.18
2023-04-20T17:25:31.812Z,11.07
2023-04-20T17:27:58.280Z,10.63
2023-04-20T17:30:24.895Z,8.73
2023-04-20T17:32:52.874Z,8.15
2023-04-20T17:35:19.282Z,11.43
2023-04-20T17:37:45.798Z,9.70
2023-04-20T17:40:12.282Z,9.05
2023-04-20T17:42:38.657Z,8.68
2023-04-20T17:45:05.618Z,9.15
2023-04-20T17:47:32.646Z,8.88
2023-04-20T17:50:02.086Z,8.60
2023-04-20T17:52:28.395Z,8.68
2023-04-20T17:54:55.239Z,9.20
2023-04-20T17:57:21.574Z,7.78
2023-04-20T17:59:47.926Z,10.02
2023-04-20T18:02:14.657Z,9.38
2023-04-20T18:04:41.193Z,7.88
2023-04-20T18:07:07.581Z,8.70
2023-04-20T18:09:33.905Z,8.15
2023-04-20T18:12:00.997Z,10.20
2023-04-20T18:14:27.327Z,9.18
2023-04-20T18:16:55.108Z,10.07
2023-04-20T18:19:21.416Z,8.68
2023-04-20T18:21:47.719Z,8.30
2023-04-20T18:24:14.147Z,9.65
2023-04-20T18:26:40.451Z,13.65
2023-04-20T18:29:06.936Z,7.97
2023-04-20T18:31:33.538Z,9.43
2023-04-20T18:33:59.892Z,7.78
2023-04-20T18:36:26.880Z,11.55
2023-04-20T18:38:54.111Z,9.50
2023-04-20T18:41:22.535Z,8.70
2023-04-20T18:43:49.696Z,8.25
2023-04-20T18:46:16.134Z,10.05
2023-04-20T18:48:42.463Z,8.30
2023-04-20T18:51:08.915Z,8.85
2023-04-20T18:53:35.531Z,9.10
2023-04-20T18:56:02.317Z,9.55
2023-04-20T18:58:29.354Z,10.75
2023-04-20T19:00:55.970Z,8.63
2023-04-20T19:03:22.462Z,8.57
2023-04-20T19:05:48.889Z,9.05
2023-04-20T19:08:15.239Z,8.68
2023-04-20T19:10:41.498Z,8.57
2023-04-20T19:13:07.905Z,9.15
2023-04-20T19:15:34.517Z,11.55
2023-04-20T19:18:00.913Z,10.57
2023-04-20T19:20:27.256Z,10.57
2023-04-20T19:22:53.655Z,10.32
2023-04-20T19:25:20.484Z,11.18
2023-04-20T19:27:46.920Z,8.23
2023-04-20T19:30:13.399Z,9.40
2023-04-20T19:32:39.790Z,9.38
2023-04-20T19:35:06.297Z,12.35
2023-04-20T19:37:32.827Z,11.25
2023-04-20T19:39:59.133Z,12.63
2023-04-20T19:42:25.476Z,11.68
2023-04-20T19:44:53.427Z,11.40
2023-04-20T19:47:20.606Z,10.40
2023-04-20T19:49:47.110Z,9.98
2023-04-20T19:52:13.447Z,9.48
2023-04-20T19:54:39.720Z,9.45
2023-04-20T19:57:06.164Z,8.98
2023-04-20T19:59:32.757Z,9.43
2023-04-20T20:01:59.210Z,10.60
2023-04-20T20:04:26.788Z,9.00
2023-04-20T20:06:53.411Z,8.82
2023-04-20T20:09:23.170Z,9.52
2023-04-20T20:11:50.496Z,9.85
2023-04-20T20:14:17.202Z,9.75
2023-04-20T20:16:43.740Z,10.68
2023-04-20T20:19:10.188Z,9.68
2023-04-20T20:21:36.547Z,12.40
2023-04-20T20:24:02.838Z,10.68
2023-04-20T20:26:29.224Z,9.52
2023-04-20T20:28:55.556Z,10.57
2023-04-20T20:31:21.973Z,10.30
2023-04-20T20:33:48.399Z,10.85
2023-04-20T20:36:17.805Z,10.85
2023-04-20T20:38:44.201Z,11.52
2023-04-20T20:41:10.926Z,10.18
2023-04-20T20:43:37.451Z,11.00
2023-04-20T20:46:03.903Z,11.05
2023-04-20T20:48:30.543Z,10.20
2023-04-20T20:50:56.918Z,10.63
2023-04-20T20:53:23.344Z,12.07
2023-04-20T20:55:49.667Z,11.32
2023-04-20T20:58:15.938Z,10.68
2023-04-20T21:00:42.327Z,11.48
2023-04-20T21:03:08.839Z,10.95
2023-04-20T21:05:35.854Z,10.57
2023-04-20T21:08:02.313Z,10.68
2023-04-20T21:10:28.711Z,12.00
2023-04-20T21:12:55.149Z,11.98
2023-04-20T21:15:21.443Z,15.43
2023-04-20T21:17:47.798Z,12.82
2023-04-20T21:20:14.192Z,12.35
2023-04-20T21:22:40.586Z,12.93
2023-04-20T21:25:07.105Z,14.10
2023-04-20T21:27:33.531Z,13.05
2023-04-20T21:29:59.809Z,11.57
2023-04-20T21:32:26.402Z,13.63
2023-04-20T21:34:52.983Z,14.65
2023-04-20T21:37:19.323Z,12.75
2023-04-20T21:39:45.870Z,13.52
2023-04-20T21:42:12.154Z,12.57
2023-04-20T21:44:38.453Z,15.00
2023-04-20T21:47:04.756Z,14.85
2023-04-20T21:49:31.112Z,15.10
2023-04-20T21:51:57.505Z,13.63
2023-04-20T21:54:26.395Z,14.20
2023-04-20T21:56:52.699Z,13.50
2023-04-20T21:59:19.760Z,15.82
2023-04-20T22:01:46.456Z,14.60
2023-04-20T22:04:13.785Z,14.90
2023-04-20T22:06:40.186Z,14.48
2023-04-20T22:09:09.558Z,14.82
2023-04-20T22:11:37.380Z,14.32
2023-04-20T22:14:04.404Z,14.18
2023-04-20T22:16:33.814Z,14.70
2023-04-20T22:19:01.005Z,15.10
2023-04-20T22:21:27.526Z,15.30
2023-04-20T22:23:54.201Z,17.80
2023-04-20T22:26:20.651Z,15.18
2023-04-20T22:28:46.916Z,16.50
2023-04-20T22:31:13.196Z,18.08
2023-04-20T22:33:39.483Z,15.32
2023-04-20T22:36:09.162Z,15.82
2023-04-20T22:38:35.785Z,16.38
2023-04-20T22:41:02.144Z,16.30
2023-04-20T22:43:28.433Z,17.95
2023-04-20T22:45:54.763Z,14.75
2023-04-20T22:48:21.476Z,15.13
2023-04-20T22:50:47.773Z,17.33
2023-04-20T22:53:14.045Z,15.70
2023-04-20T22:55:40.991Z,17.77
2023-04-20T22:58:07.321Z,18.90
2023-04-20T23:00:33.777Z,19.98
2023-04-20T23:03:00.108Z,15.55
2023-04-20T23:05:26.589Z,18.25
2023-04-20T23:07:56.305Z,17.48
2023-04-20T23:10:22.676Z,17.17
2023-04-20T23:12:49.085Z,22.42
2023-04-20T23:15:15.473Z,19.38
2023-04-20T23:35:03.644Z,19.13
2023-04-20T23:37:29.921Z,20.05
2023-04-20T23:39:56.240Z,23.70
2023-04-20T23:42:22.601Z,18.83
2023-04-20T23:44:48.896Z,21.40
2023-04-20T23:47:15.689Z,20.50
2023-04-20T23:49:41.991Z,27.52
2023-04-20T23:52:08.421Z,22.02
2023-04-20T23:54:34.791Z,26.90
2023-04-20T23:57:01.118Z,20.40
2023-04-20T23:59:27.583Z,19.02
